Mount Shasta, California
Current Conditions -  °F | °C
As of 10:56 PM on Saturday 20 Dec 2014 (Local Time) from KMHS Reporting Station
Overcast Overcast  
Wind Chill:   Ceiling: 4500
Heat Index:   Visibility: 10mi
Dew Point:   Wind: 6mph
Humidity: 90%   Direction: 100°E
Pressure: 30.17"   Gusts: NA
Location:  41.31°N, 122.31°W
Report Text: KMHS 210656Z AUTO 10005KT 10SM OVC045 07/06 A3017 RMK AO2 SLP235 T00720056
Loading
Personal Weather Stations






























Interactive Weather Map New forecast layout! Learn more

10-Day Weather Forecast

Advertisements
Track Severe Weather on mobile